INDIA METEOROLOGICAL DEPARTMENT, R.M.C. NEW DELHI
Dated:21 - 4 - 2015
METARS


Agartala   
VEAT 210400Z 20012KT 5000 BR SCT020 30/26 Q1008 NOSIG=
Ahmedabad  
VAAH 210440Z 01006KT 4000 FU FEW080 36/16 Q1010 BECMG 5000=
Amritsar   
VIAR 210430Z VRB06KT 5000 HZ NSC 30/16 Q1010=
Aurangabad 
VAAU 210300Z 00000KT 6000 FEW020 33/15 Q1014=
Bangalore  
VOBL 210430Z 15007KT 120V190 9999 FEW015 30/22 Q1018 NOSIG=
Baroda     
VABO 210430Z 29004KT 4000 FU FEW025 SCT080 34/17 Q1010 NOSIG=
Bhaunagar  
VABV 210400Z 32003KT 3000 DU FEW025 SCT080 34/11 Q1010=
Bhopal     
VABP 210400Z 32006KT 6000 SCT100 35/10 Q1013 NOSIG=
Bhubaneswar
VEBS 210430Z 23016KT 7000 FEW020 35/25 Q1009 NOSIG=
Bhuntar    
VIBR 210400Z 32013KT 5000 -DZ SCT0357 BKN080 17/10 Q1021=
Chennai    
VOMM 210440Z 16003KT 6000 SCT020 SCT025 32/25 Q1011 NOSIG=
Coimbatore 
VOCB 210430Z 09004KT 5000 HZ SCT015 SCT018 29/21 Q1014 NOSIG=
Colombo    
VCBI 210440Z 19008KT 150V220 9999 FEW012 BKN016 29/24 Q1012 NOSIG=
Delhi      
VIDP 210430Z 30008KT 2600 HZ SCT100 33/19 Q1009 NOSIG=
Dehradun   
VIDN 210430Z 28003KT 3000 HZ 30/15 Q1010=
Gauhati    
VEGT 210430Z 04003KT 4000 HZ SCT018 BKN100 27/23 Q1009 NOSIG=
Gaya       
VEGY 210430Z 22001KT 4000 HZ NSC 34/24 Q1008 NOSIG=
Gaggal     
SPECI VIGG 210400Z 14004KT 5000 HZ SCT030 BKN0100 28/19 Q1013
Goa        
VOGO 210300Z VRB03KT 5000 BR SCT020 29/25 Q1010 NOSIG=
Fursatganj
VIRB 210400Z 00000KT 2000 DU NSC 33/21 Q1006=
Hyderabad  
VOHS 210440Z 16009KT 6000 NSC 36/19 Q1015 NOSIG=
Imphal     
VEIM 210400Z 14003KT 4000 BR FEW010 SCT018 FEW030CB BKN100 22/19 Q1014 NOSIG RMKS CB TO SW =
Jaipur     
VIJP 210430Z VRB05KT 3500 HZ NSC 35/11 Q1011 NOSIG=
Kochi      
VOCI 210430Z VRB03KT 4000 HZ FEW015 29/23 Q1011 NOSIG=
Kolkata    
VECC 210450Z 18011KT 5200 HZ FEW100 35/25 Q1007 NOSIG=
Kozhikode  
VOCL 210430Z 00000KT 6000 FEW015 SCT090 30/26 Q1011 NOSIG=
Lucknow    
VILK 210430Z VRB02KT 3500 DU NSC 36/23 Q1007 NOSIG=
Madurai    
VOMD 210430Z 07003KT 5000 HZ SCT020 FEW025TCU SCT100 32/25 Q1013 =
Mohanbari  
VEMN 210430Z 00000KT 1500-RA FEW010 SCT018 FEW025CB OVC090 24/22 Q1011 TEMPO 800-RA=
Mumbai     
VABB 210440Z 21006KT 3000 HZ FEW020 33/27 Q1011 NOSIG=
Nagpur     
VANP 210440Z 26010KT 6000 NSC 39/18 Q1011 NOSIG=
Patna      
VEPT 210450Z 12004KT 3500 HZ NSC 32/23 Q1006 NOSIG =
Raipur     
VARP 210330Z 27009KT 6000 SCT020 BKN100 32/21 Q1011 NOSIG=
Safdarjung
VIDD 210400Z 27006KT 1500 HZ FEW040 SCT100 32/22 Q1009 NOSIG=
Shimla    
VISM 210400Z 00000KT 4500 HZ NSC 27/13 Q1018=
Ranchi     
VERC 210400Z 23010KT 5000 HZ NSC 33/17 Q1012 NOSIG =
Trichy     
VOTR 210440Z NIL=
Trivandrum 
VOTV 210440Z 20004KT 4000 HZ SCT015 FEW025CB BKN090 29/24 Q1011 BECMG 5000 HZ=
Udaipur    
VAUD 210300Z 36004KT 4000 HZ NSC 31/13 Q1012 NOSIG=
Varanasi   
SPECI VIBN 210430Z 00000KT 3000 HZ NSC 33/24 Q1007=
Vizag      
VOVZ 210400Z 25011KT 6000 FEW018 33/26 Q1011 NOSIG =
Male       
VRMM 210400Z VRB02KT 9999 FEW018TCU OVC120 30/25 Q1013 TEMPO 4000 TSRA=
Gan        
VRMG 210400Z 27013KT 9999 SCT017TCU BKN110 29/25 Q1012=
Kathmandu   
VNKT 210450Z 30006KT 7000 FEW020 SCT030 26/16 Q1015 NOSIG=
Dhaka      
VGHS 210350Z 19010KT 5000 HZ SCT012 32/24 Q1007 NOSIG=
Colombo     
VCBI 210440Z 19008KT 150V220 9999 FEW012 BKN016 29/24 Q1012 NOSIG=
Karachi     
OPKC 210425Z 23005KT 6000 NSC 32/18 Q1011 NOSIG=
Lahore      
OPLA 210425Z 34008KT 7000 NSC 29/16 Q1010=
Leh        
VILH 210430Z 34004KT 6000 SCT040 SCT060 08/01 Q1028 NOSIG=
Thoise     
VITX 210430Z VRB02KT 6000 CTHT SCT040 SCT070 10/01 Q1029 NOSIG=
Sri Nagar  
VISR 210430Z 11003KT 6000 FEW020 SCT030 BKN080 13/12 Q1024 NOSIG=
Jammu      
VIJU 210430Z 36003KT 6000 FEW030 29/15 Q1009 NOSIG=
Jodhpur    
VIJO 210430Z 11004KT 6000 SKC 35/15 Q1011 NOSIG=
Bhuj-Rudra 
VABJ 210430Z 32006KT 6000 SKC 37/09 Q1011 NOSIG=
Gorakhpur  
VEGK 210430Z 10004KT 5000 DU SKC 32/23 Q1007 NOSIG=
Allahabad  
VIAL 210430Z 24004KT 5000 DU SKC 37/23 Q1007 NOSIG=
Agra       
VIAG 210430Z 32008KT 5000 DU SKC 35/16 Q1008 NOSIG=
Siliguri   
VEBD 210430Z 06006KT 6000 SCT030 BKN090 27/21 Q1009 NOSIG=
Gwalior    
VIGR 210430Z 29009KT 4000 DU SKC 36/12 Q1009 BECMG 5000=
Pune       
VAPO 210430Z 29003KT 6000 FEW250 33/20 Q1016 NOSIG=
Chandigarh 
VICG 210430Z 27006 5000 DU SKC 31/19 Q1010 NOSIG=
Jamnagar   
VAJM 210430Z 31005KT 6000 SKC 34/16 Q1011 NOSIG=